Terminal Aerodrome Forecast
Issued by NWS Houston/Galveston TX

Home | Current Version | Previous Version | Text Only | Print | Product List | Glossary On
Versions: 1 2 3 4 5 6 7 8 9 10 11 12 13 14 15 16 17 18 19 20 21 22 23 24
000
FTUS44 KHGX 210524
TAFHOU
TAF
KHOU 210524Z 2106/2206 16005KT P6SM BKN080
     FM210800 19005KT 5SM BR SCT006 BKN060
      TEMPO 2110/2113 2SM BR BKN006
     FM211500 18007KT P6SM SCT012 SCT050
     FM211800 17010KT P6SM FEW060 SCT250
     FM220200 17007KT P6SM FEW025 FEW150=

USA.gov is the U.S. government's official web portal to all federal, state and local government web resources and services.